createdAt,value
2022-12-15T01:43:44.198Z,19.37
2022-12-15T01:45:58.190Z,21.27
2022-12-15T01:49:43.112Z,19.80
2022-12-15T01:53:27.706Z,50.13
2022-12-15T01:55:36.445Z,55.58
2022-12-15T01:57:43.785Z,46.13
2022-12-15T01:59:54.496Z,64.00
2022-12-15T02:02:01.545Z,45.55
2022-12-15T02:04:09.321Z,44.03
2022-12-15T02:06:17.423Z,47.55
2022-12-15T02:08:26.650Z,43.88
2022-12-15T02:10:58.151Z,46.00
2022-12-15T02:13:14.808Z,50.88
2022-12-15T02:15:29.209Z,45.15
2022-12-15T02:17:44.343Z,37.35
2022-12-15T02:20:27.143Z,35.53
2022-12-15T02:22:49.837Z,31.05
2022-12-15T02:25:12.789Z,30.27
2022-12-15T02:27:51.354Z,34.72
2022-12-15T02:30:29.053Z,33.40
2022-12-15T02:32:41.355Z,32.97
2022-12-15T02:34:54.017Z,32.42
2022-12-15T02:37:04.881Z,35.28
2022-12-15T02:39:14.418Z,33.17
2022-12-15T02:41:40.342Z,37.22
2022-12-15T02:43:47.263Z,34.85
2022-12-15T02:46:09.675Z,35.70
2022-12-15T02:48:30.709Z,35.03
2022-12-15T02:50:56.631Z,40.67
2022-12-15T02:53:14.717Z,33.85
2022-12-15T02:55:30.039Z,32.28
2022-12-15T02:57:45.056Z,32.25
2022-12-15T03:00:00.080Z,35.00
2022-12-15T03:02:10.628Z,33.15
2022-12-15T03:04:18.992Z,32.58
2022-12-15T03:06:27.708Z,30.05
2022-12-15T03:08:35.199Z,34.30
2022-12-15T03:10:42.223Z,33.22
2022-12-15T03:12:49.253Z,33.67
2022-12-15T03:14:56.537Z,34.63
2022-12-15T03:17:03.464Z,31.00
2022-12-15T03:19:12.649Z,34.15
2022-12-15T03:21:19.771Z,35.92
2022-12-15T03:23:27.236Z,31.02
2022-12-15T03:25:34.392Z,31.63
2022-12-15T03:27:41.674Z,32.47
2022-12-15T03:29:48.600Z,33.53
2022-12-15T03:31:56.023Z,33.58
2022-12-15T03:34:03.167Z,32.83
2022-12-15T03:36:13.167Z,36.35
2022-12-15T03:38:20.095Z,34.00
2022-12-15T03:40:27.323Z,32.60
2022-12-15T03:42:52.270Z,32.72
2022-12-15T03:44:59.860Z,27.27
2022-12-15T03:47:07.094Z,33.53
2022-12-15T03:49:14.273Z,29.40
2022-12-15T03:51:22.995Z,29.50
2022-12-15T03:53:30.696Z,31.05
2022-12-15T03:55:37.923Z,26.02
2022-12-15T03:57:45.155Z,30.23
2022-12-15T03:59:52.232Z,26.38
2022-12-15T04:01:59.753Z,21.85
2022-12-15T04:04:07.208Z,23.77
2022-12-15T04:06:14.337Z,20.70
2022-12-15T04:08:27.717Z,23.30
2022-12-15T04:10:36.338Z,24.70
2022-12-15T04:12:43.356Z,20.85
2022-12-15T04:14:50.337Z,21.80
2022-12-15T04:16:57.344Z,23.67
2022-12-15T04:19:20.469Z,22.23
2022-12-15T04:21:27.600Z,25.38
2022-12-15T04:23:36.317Z,25.50
2022-12-15T04:25:59.721Z,23.80
2022-12-15T04:28:23.244Z,23.23
2022-12-15T04:30:46.866Z,23.70
2022-12-15T04:33:10.580Z,24.92
2022-12-15T04:35:34.657Z,23.95
2022-12-15T04:37:58.529Z,23.65
2022-12-15T04:40:25.017Z,21.77
2022-12-15T04:42:49.806Z,22.50
2022-12-15T04:45:20.595Z,22.85
2022-12-15T04:47:44.617Z,22.27
2022-12-15T04:50:08.187Z,21.70
2022-12-15T04:52:32.929Z,24.30
2022-12-15T04:54:56.598Z,20.10
2022-12-15T04:57:22.209Z,23.90
2022-12-15T04:59:45.829Z,22.20
2022-12-15T05:02:09.976Z,26.85
2022-12-15T05:04:33.651Z,25.05
2022-12-15T05:06:57.239Z,22.80
2022-12-15T05:09:20.701Z,20.52
2022-12-15T05:11:44.218Z,27.67
2022-12-15T05:14:09.574Z,21.30
2022-12-15T05:16:33.509Z,18.05
2022-12-15T05:18:56.915Z,22.70
2022-12-15T05:21:21.039Z,21.45
2022-12-15T05:23:44.603Z,24.73
2022-12-15T05:26:08.429Z,20.88
2022-12-15T05:28:31.330Z,23.05
2022-12-15T05:30:56.593Z,23.83
2022-12-15T05:33:08.372Z,22.77
2022-12-15T05:35:15.656Z,19.90
2022-12-15T05:37:22.633Z,21.45
2022-12-15T05:39:29.914Z,23.83
2022-12-15T05:41:36.843Z,19.42
2022-12-15T05:43:44.074Z,19.17
2022-12-15T05:45:52.928Z,26.00
2022-12-15T05:48:00.538Z,17.08
2022-12-15T05:50:07.718Z,18.52
2022-12-15T05:52:14.950Z,19.35
2022-12-15T05:54:22.908Z,17.13
2022-12-15T05:56:31.723Z,19.88
2022-12-15T05:58:44.607Z,18.90
2022-12-15T06:00:54.278Z,20.40
2022-12-15T06:03:02.285Z,18.25
2022-12-15T06:05:10.713Z,20.20
2022-12-15T06:07:17.662Z,22.58
2022-12-15T06:09:24.951Z,17.92
2022-12-15T06:11:32.332Z,15.73
2022-12-15T06:13:39.515Z,18.42
2022-12-15T06:15:46.451Z,21.23
2022-12-15T06:17:56.898Z,16.30
2022-12-15T06:20:03.877Z,17.95
2022-12-15T06:22:11.567Z,19.00
2022-12-15T06:24:18.955Z,15.45
2022-12-15T06:26:27.518Z,17.55
2022-12-15T06:28:34.802Z,17.50
2022-12-15T06:30:41.677Z,17.17
2022-12-15T06:32:50.013Z,18.75
2022-12-15T06:34:58.806Z,16.30
2022-12-15T06:37:06.091Z,17.58
2022-12-15T06:39:16.137Z,18.75
2022-12-15T06:41:24.855Z,17.63
2022-12-15T06:43:32.224Z,16.27
2022-12-15T06:45:39.628Z,17.50
2022-12-15T06:47:46.810Z,17.83
2022-12-15T06:49:53.889Z,18.80
2022-12-15T06:52:02.606Z,20.50
2022-12-15T06:54:09.943Z,17.73
2022-12-15T06:56:22.455Z,17.75
2022-12-15T06:58:32.906Z,21.42
2022-12-15T07:00:40.397Z,22.13
2022-12-15T07:02:49.997Z,23.08
2022-12-15T07:04:57.625Z,22.25
2022-12-15T07:07:06.550Z,23.73
2022-12-15T07:09:19.515Z,20.15
2022-12-15T07:11:27.261Z,19.98
2022-12-15T07:13:34.473Z,19.40
2022-12-15T07:15:42.644Z,17.60
2022-12-15T07:17:49.676Z,16.50
2022-12-15T07:19:57.061Z,19.08
2022-12-15T07:22:05.984Z,16.63
2022-12-15T07:24:15.214Z,21.05
2022-12-15T07:26:22.206Z,21.42
2022-12-15T07:28:29.716Z,15.20
2022-12-15T07:30:39.090Z,23.77
2022-12-15T07:32:50.328Z,18.42
2022-12-15T07:34:57.573Z,21.38
2022-12-15T07:37:06.599Z,19.25
2022-12-15T07:39:13.574Z,17.98
2022-12-15T07:41:21.260Z,18.10
2022-12-15T07:43:28.485Z,20.45
2022-12-15T07:45:35.973Z,19.27
2022-12-15T07:47:43.222Z,17.42
2022-12-15T07:49:50.560Z,18.55
2022-12-15T07:52:00.298Z,20.10
2022-12-15T07:54:09.431Z,18.42
2022-12-15T07:56:16.407Z,17.60
2022-12-15T07:58:23.688Z,22.92
2022-12-15T08:00:30.921Z,18.05
2022-12-15T08:02:38.262Z,19.52
2022-12-15T08:04:45.335Z,16.58
2022-12-15T08:06:52.516Z,15.45
2022-12-15T08:08:59.853Z,17.85
2022-12-15T08:11:10.825Z,18.63
2022-12-15T08:14:00.236Z,19.85
2022-12-15T08:15:45.616Z,16.27
2022-12-15T08:17:52.700Z,16.38
2022-12-15T08:20:03.432Z,19.50
2022-12-15T08:22:16.069Z,16.95
2022-12-15T08:24:24.173Z,20.63
2022-12-15T08:26:32.940Z,16.73
2022-12-15T08:28:41.094Z,23.33
2022-12-15T08:30:48.020Z,18.50
2022-12-15T08:32:55.151Z,19.35
2022-12-15T08:35:02.075Z,18.70
2022-12-15T08:37:09.515Z,18.38
2022-12-15T08:39:16.393Z,18.15
2022-12-15T08:41:25.668Z,17.65
2022-12-15T08:43:34.653Z,24.90
2022-12-15T08:45:45.010Z,25.10
2022-12-15T08:47:52.078Z,26.60
2022-12-15T08:49:59.367Z,21.23
2022-12-15T08:52:06.338Z,18.58
2022-12-15T08:54:13.623Z,17.55
2022-12-15T08:56:23.265Z,17.60
2022-12-15T08:58:30.347Z,19.27
2022-12-15T09:00:39.009Z,16.92
2022-12-15T09:02:46.811Z,22.13
2022-12-15T09:04:53.914Z,17.73
2022-12-15T09:07:01.320Z,17.23
2022-12-15T09:09:10.555Z,21.58
2022-12-15T09:11:18.022Z,18.50
2022-12-15T09:13:25.118Z,15.60
2022-12-15T09:16:00.197Z,19.67
2022-12-15T09:18:01.099Z,19.85
2022-12-15T09:20:10.915Z,18.85
2022-12-15T09:22:20.316Z,19.15
2022-12-15T09:24:34.594Z,24.15
2022-12-15T09:26:43.743Z,19.95
2022-12-15T09:28:51.093Z,19.05
2022-12-15T09:30:58.500Z,19.10
2022-12-15T09:33:07.180Z,18.95
2022-12-15T09:35:14.618Z,17.88
2022-12-15T09:37:21.633Z,19.63
2022-12-15T09:39:28.985Z,19.80
2022-12-15T09:41:37.750Z,17.55
2022-12-15T09:43:50.973Z,19.65
2022-12-15T09:46:05.740Z,20.52
2022-12-15T09:48:21.209Z,20.88
2022-12-15T09:50:33.255Z,19.92
2022-12-15T09:52:50.112Z,22.08
2022-12-15T09:54:57.498Z,18.70
2022-12-15T09:57:10.877Z,18.25
2022-12-15T09:59:28.452Z,21.00
2022-12-15T10:01:41.971Z,18.95
2022-12-15T10:03:59.344Z,20.83
2022-12-15T10:06:16.460Z,19.95
2022-12-15T10:08:26.312Z,21.20
2022-12-15T10:10:37.997Z,20.58
2022-12-15T10:12:57.807Z,22.23
2022-12-15T10:15:20.060Z,18.42
2022-12-15T10:17:28.939Z,31.02
2022-12-15T10:19:43.385Z,28.70
2022-12-15T10:21:51.437Z,20.10
2022-12-15T10:24:04.730Z,21.67
2022-12-15T10:26:23.924Z,17.63
2022-12-15T10:28:55.426Z,19.77
2022-12-15T10:31:05.965Z,19.40
2022-12-15T10:33:22.027Z,19.85
2022-12-15T10:35:34.182Z,22.42
2022-12-15T10:39:50.323Z,20.52
2022-12-15T10:42:16.199Z,26.08
2022-12-15T10:44:32.247Z,20.95
2022-12-15T10:46:39.527Z,21.67
2022-12-15T10:51:24.914Z,22.08
2022-12-15T10:53:44.587Z,32.95
2022-12-15T10:56:04.007Z,41.13
2022-12-15T10:58:21.841Z,46.58
2022-12-15T11:00:31.373Z,40.25
2022-12-15T11:02:40.235Z,60.50
2022-12-15T11:04:59.253Z,50.47
2022-12-15T11:07:17.085Z,113.72
2022-12-15T11:09:31.949Z,79.63
2022-12-15T11:12:05.927Z,62.67
2022-12-15T11:14:17.953Z,71.85
2022-12-15T11:16:24.982Z,51.03
2022-12-15T11:18:42.144Z,43.20
2022-12-15T11:20:57.165Z,42.63
2022-12-15T11:23:10.538Z,66.97
2022-12-15T11:25:26.833Z,102.47
2022-12-15T11:27:38.418Z,94.72
2022-12-15T11:29:58.248Z,117.50
2022-12-15T11:32:07.533Z,75.88
2022-12-15T11:34:18.500Z,73.65
2022-12-15T11:36:39.094Z,60.63
2022-12-15T11:38:53.235Z,67.18
2022-12-15T11:41:04.104Z,71.03
2022-12-15T11:43:43.034Z,56.60
2022-12-15T11:46:01.477Z,60.60
2022-12-15T11:48:18.338Z,245.55
2022-12-15T11:50:33.965Z,214.70
2022-12-15T11:53:01.784Z,67.43
2022-12-15T11:55:27.671Z,61.42
2022-12-15T11:57:55.107Z,56.60
2022-12-15T12:00:09.010Z,58.40
2022-12-15T12:02:44.227Z,50.65
2022-12-15T12:05:04.002Z,62.65
2022-12-15T12:07:19.283Z,57.35
2022-12-15T12:09:33.837Z,61.50
2022-12-15T12:11:48.949Z,52.33
2022-12-15T12:14:13.186Z,56.88
2022-12-15T12:16:35.246Z,47.95
2022-12-15T12:18:50.640Z,52.42
2022-12-15T12:21:03.901Z,49.78
2022-12-15T12:23:18.425Z,47.80
2022-12-15T12:25:28.570Z,49.63
2022-12-15T12:27:43.174Z,48.83
2022-12-15T12:29:54.195Z,49.58
2022-12-15T12:34:19.158Z,51.72
2022-12-15T12:36:26.391Z,48.67
2022-12-15T12:38:40.024Z,52.85
2022-12-15T12:40:56.779Z,51.25
2022-12-15T12:43:11.880Z,53.67
2022-12-15T12:45:22.511Z,52.28
2022-12-15T12:47:33.280Z,44.22
2022-12-15T12:49:45.321Z,54.80
2022-12-15T12:51:59.774Z,63.10
2022-12-15T12:54:13.831Z,56.13
2022-12-15T12:56:42.297Z,53.25
2022-12-15T12:58:51.424Z,55.33
2022-12-15T13:01:19.333Z,59.95
2022-12-15T13:03:27.142Z,51.90
2022-12-15T13:05:36.677Z,56.05
2022-12-15T13:07:44.579Z,56.83
2022-12-15T13:10:06.294Z,57.03
2022-12-15T13:12:52.950Z,60.92
2022-12-15T13:15:03.870Z,71.03
2022-12-15T13:20:27.764Z,64.63
2022-12-15T13:22:37.556Z,54.92
2022-12-15T13:24:50.693Z,57.03
2022-12-15T13:27:08.766Z,73.88
2022-12-15T13:29:20.299Z,66.47
2022-12-15T13:31:43.165Z,68.82
2022-12-15T13:33:58.629Z,73.95
2022-12-15T13:36:06.217Z,85.25
2022-12-15T13:38:21.282Z,80.75
2022-12-15T13:40:38.398Z,93.05
2022-12-15T13:42:56.247Z,96.70
2022-12-15T13:45:40.915Z,88.55
2022-12-15T13:47:57.440Z,85.25
2022-12-15T13:50:10.457Z,75.95
2022-12-15T13:53:08.573Z,81.20
2022-12-15T13:55:00.353Z,78.32
2022-12-15T13:57:10.162Z,78.85
2022-12-15T13:59:38.934Z,71.47
2022-12-15T14:01:53.166Z,81.78
2022-12-15T14:04:09.937Z,77.82
2022-12-15T14:06:19.013Z,70.45
2022-12-15T14:08:27.638Z,80.97
2022-12-15T14:10:45.309Z,70.05
2022-12-15T14:12:58.530Z,64.23
2022-12-15T14:15:07.504Z,66.63
2022-12-15T14:17:20.369Z,66.90
2022-12-15T14:19:36.610Z,68.63
2022-12-15T14:21:52.912Z,69.78
2022-12-15T14:24:37.035Z,70.38
2022-12-15T14:26:32.719Z,57.53
2022-12-15T14:28:41.640Z,59.22
2022-12-15T14:30:50.236Z,65.15
2022-12-15T14:33:02.405Z,69.38
2022-12-15T14:35:17.628Z,66.03
2022-12-15T14:37:25.369Z,63.03
2022-12-15T14:39:37.569Z,62.58
2022-12-15T14:41:49.882Z,66.78
2022-12-15T14:44:36.559Z,72.00
2022-12-15T14:46:30.427Z,67.53
2022-12-15T14:48:42.013Z,73.28
2022-12-15T14:51:13.788Z,63.83
2022-12-15T14:53:23.530Z,64.22
2022-12-15T14:55:38.033Z,62.78
2022-12-15T14:57:48.135Z,64.75
2022-12-15T14:59:56.086Z,63.75
2022-12-15T15:02:14.543Z,58.80
2022-12-15T15:03:05.364Z,70.65
2022-12-15T15:03:06.721Z,20.73
2022-12-15T15:04:30.260Z,70.80
2022-12-15T15:06:40.776Z,76.00
2022-12-15T15:08:52.510Z,75.78
2022-12-15T15:11:02.252Z,78.20
2022-12-15T15:13:09.738Z,72.43
2022-12-15T15:15:20.775Z,75.28
2022-12-15T15:17:31.782Z,77.35
2022-12-15T15:19:42.038Z,72.28
2022-12-15T15:21:51.575Z,70.05
2022-12-15T15:24:07.048Z,71.70
2022-12-15T15:26:19.658Z,78.82
2022-12-15T15:28:29.164Z,71.25
2022-12-15T15:30:48.293Z,66.47
2022-12-15T15:32:58.507Z,66.60
2022-12-15T15:35:05.845Z,61.38
2022-12-15T15:37:20.400Z,64.40
2022-12-15T15:39:27.784Z,64.15
2022-12-15T15:41:35.942Z,65.32
2022-12-15T15:43:43.303Z,72.88
2022-12-15T15:45:51.300Z,75.00
2022-12-15T15:47:58.866Z,79.22
2022-12-15T15:50:06.152Z,69.65
2022-12-15T15:52:16.556Z,75.45
2022-12-15T15:54:28.294Z,72.45
2022-12-15T15:56:36.039Z,72.13
2022-12-15T15:58:43.990Z,66.28
2022-12-15T16:00:50.965Z,70.85
2022-12-15T16:02:58.277Z,74.35
2022-12-15T16:05:05.842Z,80.82
2022-12-15T16:07:23.415Z,69.88
2022-12-15T16:09:30.398Z,170.90
2022-12-15T16:11:39.010Z,222.73
2022-12-15T16:13:46.191Z,112.45
2022-12-15T16:15:53.799Z,80.10
2022-12-15T16:18:01.375Z,85.20
2022-12-15T16:20:09.731Z,79.38
2022-12-15T16:22:22.190Z,82.55
2022-12-15T16:24:29.318Z,87.80
2022-12-15T16:26:38.241Z,89.03
2022-12-15T16:28:45.780Z,87.93
2022-12-15T16:30:53.290Z,83.32
2022-12-15T16:33:00.707Z,90.53
2022-12-15T16:35:08.969Z,91.03
2022-12-15T16:37:28.587Z,101.50
2022-12-15T16:39:36.945Z,89.10
2022-12-15T16:41:44.179Z,89.57
2022-12-15T16:43:51.104Z,94.80
2022-12-15T16:45:58.926Z,111.43
2022-12-15T16:48:05.942Z,119.35
2022-12-15T16:50:17.667Z,127.93
2022-12-15T16:52:26.434Z,116.57
2022-12-15T16:54:35.203Z,117.53
2022-12-15T16:56:43.618Z,115.63
2022-12-15T16:58:57.463Z,118.30
2022-12-15T17:01:16.928Z,112.63
2022-12-15T17:03:27.741Z,122.07
2022-12-15T17:05:36.508Z,116.65
2022-12-15T17:07:45.940Z,119.57
2022-12-15T17:09:53.792Z,114.10
2022-12-15T17:12:03.324Z,108.60
2022-12-15T17:14:12.401Z,116.65
2022-12-15T17:16:20.270Z,124.57
2022-12-15T17:18:27.378Z,125.20
2022-12-15T17:20:35.226Z,120.13
2022-12-15T17:22:43.993Z,132.90
2022-12-15T17:24:53.074Z,125.18
2022-12-15T17:27:00.140Z,124.10
2022-12-15T17:29:17.509Z,126.43
2022-12-15T17:31:30.314Z,121.05
2022-12-15T17:33:41.865Z,110.03
2022-12-15T17:35:49.714Z,108.68
2022-12-15T17:38:00.787Z,110.68
2022-12-15T17:40:17.282Z,109.47
2022-12-15T17:42:24.985Z,108.65
2022-12-15T17:44:35.020Z,117.13
2022-12-15T17:46:43.642Z,131.27
2022-12-15T17:48:51.240Z,121.45
2022-12-15T17:50:58.453Z,125.05
2022-12-15T17:53:08.312Z,120.93
2022-12-15T17:55:30.349Z,126.32
2022-12-15T17:57:41.827Z,115.95
2022-12-15T17:59:49.158Z,114.20
2022-12-15T18:01:57.945Z,103.55
2022-12-15T18:04:05.298Z,110.60
2022-12-15T18:06:17.448Z,107.18
2022-12-15T18:08:27.654Z,114.70
2022-12-15T18:10:37.561Z,104.75
2022-12-15T18:12:44.843Z,114.25
2022-12-15T18:14:52.136Z,104.75
2022-12-15T18:16:59.154Z,101.03
2022-12-15T18:19:06.116Z,102.47
2022-12-15T18:21:17.462Z,107.18
2022-12-15T18:23:27.203Z,123.10
2022-12-15T18:25:34.380Z,110.82
2022-12-15T18:27:41.631Z,114.28
2022-12-15T18:29:48.747Z,106.70
2022-12-15T18:31:55.653Z,105.72
2022-12-15T18:34:05.053Z,108.60
2022-12-15T18:36:13.351Z,107.47
2022-12-15T18:38:21.622Z,103.63
2022-12-15T18:40:32.949Z,97.18
2022-12-15T18:42:40.539Z,100.50
2022-12-15T18:44:51.728Z,99.35
2022-12-15T18:46:58.685Z,91.20
2022-12-15T18:49:05.616Z,95.55
2022-12-15T18:51:19.594Z,96.40
2022-12-15T18:53:30.161Z,86.97
2022-12-15T18:55:39.143Z,83.95
2022-12-15T18:57:46.682Z,90.78
2022-12-15T18:59:53.609Z,94.18
2022-12-15T19:02:01.278Z,95.18
2022-12-15T19:04:09.152Z,88.15
2022-12-15T19:06:26.312Z,90.95
2022-12-15T19:08:37.130Z,93.25
2022-12-15T19:10:52.350Z,85.90
2022-12-15T19:13:00.147Z,88.05
2022-12-15T19:15:09.993Z,88.75
2022-12-15T19:17:34.990Z,90.78
2022-12-15T19:20:01.268Z,89.25
2022-12-15T19:22:33.008Z,86.95
2022-12-15T19:24:58.078Z,85.27
2022-12-15T19:27:12.069Z,85.95
2022-12-15T19:29:22.374Z,89.32
2022-12-15T19:31:29.611Z,88.68
2022-12-15T19:33:36.585Z,88.53
2022-12-15T19:35:45.965Z,80.03
2022-12-15T19:37:56.023Z,86.20
2022-12-15T19:40:04.222Z,88.85
2022-12-15T19:42:22.513Z,82.85
2022-12-15T19:44:29.846Z,88.10
2022-12-15T19:46:36.771Z,82.88
2022-12-15T19:48:44.414Z,81.93
2022-12-15T19:50:54.903Z,87.22
2022-12-15T19:53:03.999Z,85.15
2022-12-15T19:55:16.508Z,86.40
2022-12-15T19:57:25.792Z,83.75
2022-12-15T19:59:32.764Z,89.00
2022-12-15T20:01:40.346Z,83.13
2022-12-15T20:03:48.292Z,77.50
2022-12-15T20:05:57.229Z,80.93
2022-12-15T20:08:04.204Z,82.68
2022-12-15T20:10:24.436Z,82.80
2022-12-15T20:12:36.691Z,90.30
2022-12-15T20:14:43.925Z,88.90
2022-12-15T20:16:51.327Z,91.93
2022-12-15T20:18:59.316Z,98.75
2022-12-15T20:21:06.390Z,92.05
2022-12-15T20:23:18.540Z,98.15
2022-12-15T20:25:29.203Z,90.40
2022-12-15T20:27:38.278Z,94.88
2022-12-15T20:29:45.253Z,88.72
2022-12-15T20:31:52.657Z,82.60
2022-12-15T20:33:59.617Z,85.90
2022-12-15T20:36:07.311Z,90.60
2022-12-15T20:38:28.879Z,88.38
2022-12-15T20:40:36.061Z,93.80
2022-12-15T20:42:44.783Z,94.03
2022-12-15T20:44:52.163Z,94.18
2022-12-15T20:47:01.445Z,81.30
2022-12-15T20:49:16.768Z,84.70
2022-12-15T20:51:27.243Z,87.30
2022-12-15T20:53:34.763Z,91.63
2022-12-15T20:55:41.999Z,87.20
2022-12-15T20:57:51.125Z,90.10
2022-12-15T20:59:58.358Z,87.00
2022-12-15T21:02:06.341Z,90.85
2022-12-15T21:04:27.057Z,89.00
2022-12-15T21:06:34.599Z,89.70
2022-12-15T21:08:41.627Z,89.38
2022-12-15T21:10:49.676Z,90.10
2022-12-15T21:12:58.548Z,86.18
2022-12-15T21:15:06.040Z,84.40
2022-12-15T21:17:17.039Z,90.97
2022-12-15T21:19:24.750Z,87.97
2022-12-15T21:21:33.367Z,81.47
2022-12-15T21:23:42.959Z,76.82
2022-12-15T21:25:50.434Z,82.82
2022-12-15T21:28:00.402Z,79.55
2022-12-15T21:30:16.635Z,81.07
2022-12-15T21:32:24.125Z,79.15
2022-12-15T21:34:31.049Z,83.88
2022-12-15T21:36:38.588Z,80.57
2022-12-15T21:38:47.458Z,81.75
2022-12-15T21:40:59.265Z,81.72
2022-12-15T21:45:20.729Z,83.47
2022-12-15T21:47:49.363Z,79.28
2022-12-15T21:49:55.244Z,85.25
2022-12-15T21:52:03.677Z,83.07
2022-12-15T21:54:20.028Z,81.43
2022-12-15T21:56:26.952Z,84.43
2022-12-15T21:58:36.192Z,82.25
2022-12-15T22:00:45.690Z,77.68
2022-12-15T22:02:54.094Z,86.65
2022-12-15T22:05:01.617Z,91.63
2022-12-15T22:07:13.606Z,81.93
2022-12-15T22:09:22.222Z,82.47
2022-12-15T22:11:31.096Z,86.68
2022-12-15T22:13:39.810Z,79.18
2022-12-15T22:15:47.409Z,81.45
2022-12-15T22:17:54.378Z,88.28
2022-12-15T22:20:01.721Z,78.60
2022-12-15T22:22:08.700Z,83.53
2022-12-15T22:24:16.434Z,85.57
2022-12-15T22:26:26.073Z,80.95
2022-12-15T22:28:33.740Z,83.35
2022-12-15T22:30:42.612Z,83.45
2022-12-15T22:32:50.330Z,77.38
2022-12-15T22:34:57.717Z,76.53
2022-12-15T22:37:04.950Z,85.75
2022-12-15T22:39:12.187Z,78.78
2022-12-15T22:41:23.641Z,86.93
2022-12-15T22:43:37.145Z,78.30
2022-12-15T22:45:46.118Z,75.97
2022-12-15T22:47:55.390Z,72.53
2022-12-15T22:50:03.250Z,80.22
2022-12-15T22:52:19.038Z,78.95
2022-12-15T22:54:28.463Z,85.40
2022-12-15T22:56:40.355Z,87.80
2022-12-15T22:58:50.558Z,88.60
2022-12-15T23:01:03.119Z,86.78
2022-12-15T23:03:12.958Z,86.82
2022-12-15T23:05:22.600Z,78.95
2022-12-15T23:07:30.752Z,83.10
2022-12-15T23:09:37.678Z,84.55
2022-12-15T23:11:43.581Z,88.50
2022-12-15T23:13:50.504Z,82.15
2022-12-15T23:16:16.863Z,80.80
2022-12-15T23:18:23.811Z,85.32
2022-12-15T23:20:31.352Z,90.43
2022-12-15T23:22:38.276Z,90.57
2022-12-15T23:24:45.408Z,84.03
2022-12-15T23:26:52.332Z,98.75
2022-12-15T23:28:59.617Z,90.43
2022-12-15T23:31:09.342Z,89.30
2022-12-15T23:33:16.694Z,98.03
2022-12-15T23:35:23.674Z,89.70
2022-12-15T23:37:31.004Z,98.07
2022-12-15T23:39:37.880Z,103.63
2022-12-15T23:41:45.265Z,102.65
2022-12-15T23:43:52.810Z,104.47
2022-12-15T23:46:01.984Z,102.15
2022-12-15T23:48:11.162Z,102.40
2022-12-15T23:50:18.858Z,104.68
2022-12-15T23:52:25.886Z,117.10
2022-12-15T23:54:33.117Z,111.55
2022-12-15T23:56:42.039Z,109.38
2022-12-15T23:58:50.346Z,105.13
